Time;durP1;ratioP1;P1;durP2;ratioP2;P2;SDS_P1;SDS_P2;PMS_P1;PMS_P2;Temp;Humidity;BMP_temperature;BMP_pressure;BME280_temperature;BME280_humidity;BME280_pressure;Samples;Min_cycle;Max_cycle;Signal;HPM_P1;HPM_P2
2023/08/02 00:02:24;;;;;;;;;;;;;;;23.01;88.52;100012.72;5113969;28;19912;-81
2023/08/02 00:04:50;;;;;;;;;;;;;;;23.05;88.18;100008.50;5100861;28;20550;-86
2023/08/02 00:07:15;;;;;;;;;;;;;;;23.06;87.90;100012.91;5136987;28;19941;-83
2023/08/02 00:09:40;;;;;;;;;;;;;;;23.06;88.17;100007.41;5129054;28;19937;-81
2023/08/02 00:12:06;;;;;;;;;;;;;;;23.07;88.50;100009.09;5137044;28;19904;-83
2023/08/02 00:14:31;;;;;;;;;;;;;;;23.06;88.45;100015.63;5130606;28;19934;-81
2023/08/02 00:16:56;;;;;;;;;;;;;;;22.99;88.63;100012.13;5118214;28;19915;-79
2023/08/02 00:19:22;;;;;;;;;;;;;;;23.00;88.77;100024.75;5127068;28;19912;-82
2023/08/02 00:21:47;;;;;;;;;;;;;;;22.97;88.67;100019.69;5124946;28;19914;-79
2023/08/02 00:24:12;;;;;;;;;;;;;;;22.98;88.69;100011.28;5120969;28;19923;-80
2023/08/02 00:26:37;;;;;;;;;;;;;;;22.99;88.22;100012.13;5113883;28;20361;-80
2023/08/02 00:29:03;;;;;;;;;;;;;;;23.03;88.82;100019.66;5113198;28;20355;-81
2023/08/02 00:31:28;;;;;;;;;;;;;;;23.02;88.56;100017.16;5111756;28;19920;-82
2023/08/02 00:33:53;;;;;;;;;;;;;;;22.98;88.18;100016.75;5112008;28;19922;-79
2023/08/02 00:36:19;;;;;;;;;;;;;;;22.90;88.15;100019.78;5114349;28;19922;-81
2023/08/02 00:38:44;;;;;;;;;;;;;;;22.87;88.77;100013.88;5112923;28;20451;-80
2023/08/02 00:41:09;;;;;;;;;;;;;;;22.80;88.81;100018.53;5112243;28;20340;-80
2023/08/02 00:43:42;;;;;;;;;;;;;;;22.74;89.19;100004.66;5091977;28;19915;-82
2023/08/02 00:46:07;;;;;;;;;;;;;;;22.66;89.68;100013.13;5092214;28;19920;-80
2023/08/02 00:48:34;;;;;;;;;;;;;;;22.60;90.36;100013.09;5110581;28;19918;-81
2023/08/02 00:50:59;;;;;;;;;;;;;;;22.67;90.64;100014.81;5110600;28;19916;-79
2023/08/02 00:53:25;;;;;;;;;;;;;;;22.66;90.63;100013.13;5110581;28;19916;-79
2023/08/02 00:55:51;;;;;;;;;;;;;;;22.65;90.25;100011.47;5110698;28;19918;-82
2023/08/02 00:58:17;;;;;;;;;;;;;;;22.67;90.63;100009.31;5110189;28;20006;-81
2023/08/02 01:00:42;;;;;;;;;;;;;;;22.68;90.95;100005.53;5110718;28;19911;-83
2023/08/02 01:03:07;;;;;;;;;;;;;;;22.74;90.66;100001.91;5110504;28;20448;-80
2023/08/02 01:05:38;;;;;;;;;;;;;;;22.76;90.86;100007.16;5111485;28;19911;-80
2023/08/02 01:08:07;;;;;;;;;;;;;;;22.76;91.25;100007.16;5112382;28;20014;-81
2023/08/02 01:10:45;;;;;;;;;;;;;;;22.70;91.07;100014.38;5111318;28;19918;-81
2023/08/02 01:13:12;;;;;;;;;;;;;;;22.69;90.80;100011.84;5097126;28;20341;-82
2023/08/02 01:15:38;;;;;;;;;;;;;;;22.65;90.94;100005.97;5123626;28;19918;-80
2023/08/02 01:18:03;;;;;;;;;;;;;;;22.72;92.37;100012.25;5120587;28;19911;-81
2023/08/02 01:20:28;;;;;;;;;;;;;;;22.72;92.58;100012.25;5110620;28;19912;-81
2023/08/02 01:22:55;;;;;;;;;;;;;;;22.70;92.38;99997.91;5087311;28;19985;-80
2023/08/02 01:25:21;;;;;;;;;;;;;;;22.69;92.36;100017.31;5087443;28;20068;-81
2023/08/02 01:27:51;;;;;;;;;;;;;;;22.68;92.68;100013.75;5087563;28;19912;-81
2023/08/02 01:30:18;;;;;;;;;;;;;;;22.72;92.48;100005.91;5087736;28;20383;-81
2023/08/02 01:32:43;;;;;;;;;;;;;;;22.68;92.49;100013.75;5087615;28;20403;-81
2023/08/02 01:35:09;;;;;;;;;;;;;;;22.73;93.28;100013.09;5087371;28;19915;-80
2023/08/02 01:37:35;;;;;;;;;;;;;;;22.76;93.06;100002.53;5087373;28;19916;-82
2023/08/02 01:40:01;;;;;;;;;;;;;;;22.78;93.00;100005.88;5087504;28;19915;-81
2023/08/02 01:42:26;;;;;;;;;;;;;;;22.80;93.57;99996.59;5087366;28;20397;-81
2023/08/02 01:44:51;;;;;;;;;;;;;;;22.81;93.49;99999.16;5088221;28;20003;-81
2023/08/02 01:47:17;;;;;;;;;;;;;;;22.75;93.81;99998.09;5087960;28;19934;-80
2023/08/02 01:49:43;;;;;;;;;;;;;;;22.75;94.04;99994.53;5087567;28;20658;-81
2023/08/02 01:52:08;;;;;;;;;;;;;;;22.81;93.29;100004.63;5087881;28;20291;-82
2023/08/02 01:54:33;;;;;;;;;;;;;;;22.82;93.00;99991.75;5105171;28;20389;-81
2023/08/02 01:56:59;;;;;;;;;;;;;;;22.77;93.03;99987.78;5115131;28;20414;-89
2023/08/02 01:59:24;;;;;;;;;;;;;;;22.75;93.22;99991.78;5098552;28;20039;-80
2023/08/02 02:01:49;;;;;;;;;;;;;;;22.72;94.03;99998.53;5111001;28;19915;-80
2023/08/02 02:04:14;;;;;;;;;;;;;;;22.67;94.22;99984.66;5110984;28;20379;-79
2023/08/02 02:06:40;;;;;;;;;;;;;;;22.58;94.82;99991.41;5111532;28;19922;-79
2023/08/02 02:09:05;;;;;;;;;;;;;;;22.62;94.78;99987.19;5115555;28;20423;-79
2023/08/02 02:11:30;;;;;;;;;;;;;;;22.63;94.85;99988.84;5122898;28;19911;-79
2023/08/02 02:13:56;;;;;;;;;;;;;;;22.66;94.49;99991.19;5117103;28;19912;-79
2023/08/02 02:16:21;;;;;;;;;;;;;;;22.64;94.61;99993.28;5097051;28;19912;-80
2023/08/02 02:18:46;;;;;;;;;;;;;;;22.68;94.30;99989.09;5114935;28;19912;-79
2023/08/02 02:21:12;;;;;;;;;;;;;;;22.68;93.46;99994.56;5114276;28;19919;-77
2023/08/02 02:23:37;;;;;;;;;;;;;;;22.66;93.31;99988.44;5114317;28;20015;-81
2023/08/02 02:26:02;;;;;;;;;;;;;;;22.62;93.48;99998.16;5114293;28;19965;-77
2023/08/02 02:28:27;;;;;;;;;;;;;;;22.61;93.50;100004.69;5114838;28;19919;-77
2023/08/02 02:30:53;;;;;;;;;;;;;;;22.60;93.68;100002.13;5114594;28;19916;-77
2023/08/02 02:33:18;;;;;;;;;;;;;;;22.57;93.23;100003.44;5114766;28;19911;-81
2023/08/02 02:35:43;;;;;;;;;;;;;;;22.56;93.24;100001.75;5113707;28;20279;-78
2023/08/02 02:38:09;;;;;;;;;;;;;;;22.59;93.19;99998.59;5113918;28;19919;-78
2023/08/02 02:40:34;;;;;;;;;;;;;;;22.64;92.32;99998.75;5113531;28;19993;-78
2023/08/02 02:42:59;;;;;;;;;;;;;;;22.66;91.32;100007.63;5113875;28;20374;-78
2023/08/02 02:45:24;;;;;;;;;;;;;;;22.67;90.95;100009.31;5114350;28;19912;-79
2023/08/02 02:47:50;;;;;;;;;;;;;;;22.65;90.95;99995.00;5113365;28;20387;-78
2023/08/02 02:50:15;;;;;;;;;;;;;;;22.61;91.08;99996.47;5113524;28;19912;-78
2023/08/02 02:52:41;;;;;;;;;;;;;;;22.64;90.43;99997.91;5113695;28;19912;-78
2023/08/02 02:55:07;;;;;;;;;;;;;;;22.63;90.06;99999.81;5113801;28;19919;-76
2023/08/02 02:57:32;;;;;;;;;;;;;;;22.57;90.10;99991.63;5114344;28;19912;-82
2023/08/02 02:59:57;;;;;;;;;;;;;;;22.54;90.96;99998.38;5114391;28;19912;-79
2023/08/02 03:02:22;;;;;;;;;;;;;;;22.54;91.57;99990.16;5113607;28;19934;-77
2023/08/02 03:04:48;;;;;;;;;;;;;;;22.57;91.65;99992.47;5115320;28;19969;-78
2023/08/02 03:07:13;;;;;;;;;;;;;;;22.59;91.95;99998.59;5122644;28;19933;-79
2023/08/02 03:09:38;;;;;;;;;;;;;;;22.61;92.42;99999.19;5119249;28;20385;-78
2023/08/02 03:12:04;;;;;;;;;;;;;;;22.61;91.57;99999.19;5113328;28;19911;-78
2023/08/02 03:14:29;;;;;;;;;;;;;;;22.55;92.42;99993.75;5113085;28;19912;-80
2023/08/02 03:16:54;;;;;;;;;;;;;;;22.50;93.39;99999.03;5113057;28;20011;-77
2023/08/02 03:19:20;;;;;;;;;;;;;;;22.58;93.90;100005.13;5112766;28;19919;-78
2023/08/02 03:21:45;;;;;;;;;;;;;;;22.61;93.78;100001.94;5110940;28;20287;-80
2023/08/02 03:24:10;;;;;;;;;;;;;;;22.56;93.87;100001.75;5090461;28;19927;-79
2023/08/02 03:26:35;;;;;;;;;;;;;;;22.61;93.74;100007.41;5092082;28;19912;-78
2023/08/02 03:29:01;;;;;;;;;;;;;;;22.60;94.07;100000.25;5091955;28;19961;-78
2023/08/02 03:31:26;;;;;;;;;;;;;;;22.66;94.13;99993.94;5091918;28;19912;-79
2023/08/02 03:33:51;;;;;;;;;;;;;;;22.70;94.11;99995.19;5092770;28;19919;-76
2023/08/02 03:36:17;;;;;;;;;;;;;;;22.73;94.44;99994.75;5092314;28;19919;-77
2023/08/02 03:38:42;;;;;;;;;;;;;;;22.72;94.56;99997.69;5092373;28;19958;-81
2023/08/02 03:41:08;;;;;;;;;;;;;;;22.75;95.20;99989.88;5091854;28;19967;-79
2023/08/02 03:43:33;;;;;;;;;;;;;;;22.80;95.56;99991.13;5091898;28;19969;-78
2023/08/02 03:45:58;;;;;;;;;;;;;;;22.83;95.09;99994.28;5091776;28;20025;-77
2023/08/02 03:48:25;;;;;;;;;;;;;;;22.86;95.14;99991.09;5091656;28;19923;-78
2023/08/02 03:50:50;;;;;;;;;;;;;;;22.92;95.29;99983.88;5092176;28;19951;-78
2023/08/02 03:53:15;;;;;;;;;;;;;;;23.00;94.41;99984.44;5092471;28;19954;-79
2023/08/02 03:55:41;;;;;;;;;;;;;;;23.04;94.35;99990.34;5091328;28;19947;-77
2023/08/02 03:58:06;;;;;;;;;;;;;;;23.07;95.50;99992.66;5091400;28;20394;-76
2023/08/02 04:00:31;;;;;;;;;;;;;;;23.10;96.03;99993.03;5091629;28;19969;-78
2023/08/02 04:02:56;;;;;;;;;;;;;;;23.16;95.48;99985.81;5095976;28;19934;-81
2023/08/02 04:05:22;;;;;;;;;;;;;;;23.20;95.85;99989.81;5094744;28;19912;-77
2023/08/02 04:07:47;;;;;;;;;;;;;;;23.28;96.35;99984.06;5078315;28;20019;-77
2023/08/02 04:10:12;;;;;;;;;;;;;;;23.35;96.40;99979.34;5070886;28;19939;-76
2023/08/02 04:12:38;;;;;;;;;;;;;;;23.43;96.05;99981.00;5069716;28;20399;-77
2023/08/02 04:15:03;;;;;;;;;;;;;;;23.49;95.57;99980.94;5070725;28;19912;-76
2023/08/02 04:17:28;;;;;;;;;;;;;;;23.60;94.71;99973.91;5071775;28;20003;-77
2023/08/02 04:19:54;;;;;;;;;;;;;;;23.72;93.38;99970.19;5071128;28;20630;-77
2023/08/02 04:22:19;;;;;;;;;;;;;;;23.83;92.90;99972.19;5070471;28;19916;-77
2023/08/02 04:24:44;;;;;;;;;;;;;;;23.94;91.37;99967.88;5104535;28;19966;-76
2023/08/02 04:27:10;;;;;;;;;;;;;;;24.03;90.38;99976.66;5110638;28;19922;-77
2023/08/02 04:29:35;;;;;;;;;;;;;;;24.12;89.89;99975.31;5092828;28;19912;-79
2023/08/02 04:32:00;;;;;;;;;;;;;;;24.17;88.68;99983.69;5093204;28;19998;-87
2023/08/02 04:34:26;;;;;;;;;;;;;;;24.27;88.35;99973.03;5096492;28;20343;-87
2023/08/02 04:36:51;;;;;;;;;;;;;;;24.33;88.80;99980.34;5096050;28;19918;-87
2023/08/02 04:39:16;;;;;;;;;;;;;;;24.23;83.64;99975.38;5113414;28;19912;-86
2023/08/02 04:41:42;;;;;;;;;;;;;;;24.30;83.33;99978.91;5112905;28;20007;-91
2023/08/02 04:44:07;;;;;;;;;;;;;;;24.38;83.64;99980.47;5114747;28;20467;-91
2023/08/02 04:46:32;;;;;;;;;;;;;;;24.46;84.44;99991.19;5114635;28;20314;-89
2023/08/02 04:48:58;;;;;;;;;;;;;;;24.50;83.26;99978.63;5099073;28;19926;-86
2023/08/02 04:51:24;;;;;;;;;;;;;;;24.52;80.81;99983.94;5103157;28;19911;-82
2023/08/02 04:53:49;;;;;;;;;;;;;;;24.56;80.22;99985.97;5116022;28;19969;-84
2023/08/02 04:56:15;;;;;;;;;;;;;;;24.61;79.81;99988.88;5100756;28;19933;-84
2023/08/02 04:58:40;;;;;;;;;;;;;;;24.60;78.73;99995.44;5122477;28;20302;-83
2023/08/02 05:01:06;;;;;;;;;;;;;;;24.69;77.92;99982.22;5119783;28;19926;-84
2023/08/02 05:03:32;;;;;;;;;;;;;;;24.68;78.37;99986.88;5094582;28;19937;-84
2023/08/02 05:06:00;;;;;;;;;;;;;;;24.74;78.54;99985.94;5096806;28;20006;-81
2023/08/02 05:08:28;;;;;;;;;;;;;;;24.80;78.54;99979.50;5112793;28;19927;-86
2023/08/02 05:10:54;;;;;;;;;;;;;;;24.85;78.00;99987.94;5111695;28;19957;-87
2023/08/02 05:13:21;;;;;;;;;;;;;;;24.80;77.48;99975.91;5112578;28;19919;-87
2023/08/02 05:15:46;;;;;;;;;;;;;;;24.86;77.65;99972.28;5092585;28;19935;-89
2023/08/02 05:18:11;;;;;;;;;;;;;;;24.94;76.27;99977.44;5093026;28;19918;-86
2023/08/02 05:20:37;;;;;;;;;;;;;;;25.00;75.08;99978.41;5111313;28;19912;-87
2023/08/02 05:23:02;;;;;;;;;;;;;;;25.05;75.52;99981.28;5110600;28;19927;-87
2023/08/02 05:25:30;;;;;;;;;;;;;;;25.10;75.65;99989.72;5111441;28;19918;-87
2023/08/02 05:27:55;;;;;;;;;;;;;;;25.07;75.33;99985.50;5111435;28;19915;-87
2023/08/02 05:30:20;;;;;;;;;;;;;;;25.08;75.10;99986.34;5092574;28;19918;-87
2023/08/02 05:32:47;;;;;;;;;;;;;;;25.12;74.68;99982.03;5111009;28;19915;-87
2023/08/02 05:35:12;;;;;;;;;;;;;;;25.18;73.99;99987.44;5111772;28;19915;-87
2023/08/02 05:37:37;;;;;;;;;;;;;;;25.33;74.18;99989.75;5111687;28;19919;-87
2023/08/02 05:40:03;;;;;;;;;;;;;;;25.38;73.80;99982.47;5111107;28;19912;-87
2023/08/02 05:42:28;;;;;;;;;;;;;;;25.48;74.49;99979.13;5110649;28;19969;-86
2023/08/02 05:44:53;;;;;;;;;;;;;;;25.63;74.00;99981.44;5112924;28;19915;-87
2023/08/02 05:47:18;;;;;;;;;;;;;;;25.72;73.09;99982.75;5098214;28;19973;-86
2023/08/02 05:49:44;;;;;;;;;;;;;;;25.70;70.75;99983.03;5116943;28;20901;-85
2023/08/02 05:52:09;;;;;;;;;;;;;;;25.83;71.47;99979.19;5120007;28;19907;-84
2023/08/02 05:54:34;;;;;;;;;;;;;;;25.86;70.98;99978.72;5110244;28;19912;-87
2023/08/02 05:57:00;;;;;;;;;;;;;;;25.88;70.97;99977.41;5127257;28;19912;-85
2023/08/02 05:59:27;;;;;;;;;;;;;;;25.92;71.49;99984.09;5115226;28;19955;-86
2023/08/02 06:01:53;;;;;;;;;;;;;;;26.01;71.83;99980.97;5114545;28;19915;-85
2023/08/02 06:04:20;;;;;;;;;;;;;;;26.13;71.98;99979.06;5114666;28;20644;-88
2023/08/02 06:06:46;;;;;;;;;;;;;;;26.07;73.64;99980.00;5097474;28;19919;-87
2023/08/02 06:09:11;;;;;;;;;;;;;;;26.07;73.66;99974.50;5114388;28;19911;-84
2023/08/02 06:11:36;;;;;;;;;;;;;;;26.15;73.73;99976.88;5114114;28;19922;-85
2023/08/02 06:14:02;;;;;;;;;;;;;;;26.23;72.44;99977.41;5114929;28;19908;-85
2023/08/02 06:16:27;;;;;;;;;;;;;;;26.25;72.28;99977.16;5114112;28;19919;-84
2023/08/02 06:18:52;;;;;;;;;;;;;;;26.28;72.52;99976.66;5097593;28;19969;-84
2023/08/02 06:21:18;;;;;;;;;;;;;;;26.23;72.71;99974.66;5114691;28;20019;-85
2023/08/02 06:23:43;;;;;;;;;;;;;;;26.25;72.25;99977.16;5114757;28;19923;-86
2023/08/02 06:26:08;;;;;;;;;;;;;;;26.18;71.14;99981.94;5114919;28;20310;-83
2023/08/02 06:28:33;;;;;;;;;;;;;;;26.04;68.22;99981.34;5114127;28;19918;-84
2023/08/02 06:30:59;;;;;;;;;;;;;;;26.01;69.38;99981.81;5114014;28;19911;-83
2023/08/02 06:33:24;;;;;;;;;;;;;;;25.86;70.50;99989.75;5095570;28;20006;-85
2023/08/02 06:35:49;;;;;;;;;;;;;;;25.84;70.95;99981.69;5114595;28;19919;-86
2023/08/02 06:38:14;;;;;;;;;;;;;;;25.86;70.99;99992.50;5113790;28;19918;-83
2023/08/02 06:40:40;;;;;;;;;;;;;;;25.85;70.39;99990.81;5114462;28;20378;-84
2023/08/02 06:43:05;;;;;;;;;;;;;;;25.84;69.24;100003.75;5115381;28;19911;-84
2023/08/02 06:45:30;;;;;;;;;;;;;;;25.82;69.72;99994.88;5114623;28;20346;-85
2023/08/02 06:47:56;;;;;;;;;;;;;;;25.81;70.21;99995.09;5116103;28;19912;-81
2023/08/02 06:50:21;;;;;;;;;;;;;;;25.84;70.55;99991.91;5124867;28;19927;-81
2023/08/02 06:52:46;;;;;;;;;;;;;;;25.88;70.94;99996.69;5108407;28;19908;-86
2023/08/02 06:55:11;;;;;;;;;;;;;;;26.04;71.42;99997.88;5137387;28;19947;-90
2023/08/02 06:57:37;;;;;;;;;;;;;;;26.16;71.33;100000.66;5137628;28;19931;-91
2023/08/02 07:00:02;;;;;;;;;;;;;;;26.24;71.59;100001.13;5138084;28;20010;-90
2023/08/02 07:02:28;;;;;;;;;;;;;;;26.35;71.38;99994.75;5136964;28;19915;-84
2023/08/02 07:04:53;;;;;;;;;;;;;;;26.47;70.33;99998.31;5125982;28;20322;-83
2023/08/02 07:07:18;;;;;;;;;;;;;;;26.57;68.45;99989.44;5117446;28;20340;-83
2023/08/02 07:09:47;;;;;;;;;;;;;;;26.57;65.59;99983.91;5118701;28;19911;-81
2023/08/02 07:12:12;;;;;;;;;;;;;;;26.69;64.98;99984.72;5118292;28;19954;-81
2023/08/02 07:14:37;;;;;;;;;;;;;;;26.77;65.02;99991.75;5118867;28;19931;-81
2023/08/02 07:17:03;;;;;;;;;;;;;;;26.80;65.62;99981.09;5116135;28;19927;-83
2023/08/02 07:19:28;;;;;;;;;;;;;;;26.81;64.96;99987.47;5116130;28;19918;-81
2023/08/02 07:21:54;;;;;;;;;;;;;;;26.83;65.97;99983.38;5114319;28;20344;-83
2023/08/02 07:24:19;;;;;;;;;;;;;;;26.80;64.79;99989.38;5113186;28;19966;-82
2023/08/02 07:26:44;;;;;;;;;;;;;;;26.85;66.56;99974.81;5113273;28;20435;-82
2023/08/02 07:29:10;;;;;;;;;;;;;;;26.91;68.62;99971.91;5112761;28;19912;-83
2023/08/02 07:31:35;;;;;;;;;;;;;;;26.88;68.08;99968.84;5112745;28;19911;-82
2023/08/02 07:34:00;;;;;;;;;;;;;;;26.92;69.66;99967.25;5113009;28;19912;-82
2023/08/02 07:36:25;;;;;;;;;;;;;;;26.99;69.42;99979.81;5113504;28;20065;-82
2023/08/02 07:38:51;;;;;;;;;;;;;;;27.18;69.77;99976.84;5114629;28;19934;-81
2023/08/02 07:41:16;;;;;;;;;;;;;;;27.30;69.12;99985.88;5114757;28;20390;-85
2023/08/02 07:43:41;;;;;;;;;;;;;;;27.47;69.05;99990.38;5115296;28;19916;-79
2023/08/02 07:46:20;;;;;;;;;;;;;;;27.62;67.02;99987.00;5124925;28;19922;-87
2023/08/02 07:48:45;;;;;;;;;;;;;;;27.69;66.24;99990.47;5119968;28;19918;-81
2023/08/02 07:51:10;;;;;;;;;;;;;;;27.77;64.66;99984.50;5112362;28;19919;-81
2023/08/02 07:53:36;;;;;;;;;;;;;;;27.78;64.13;99991.72;5112581;28;20010;-82
2023/08/02 07:56:02;;;;;;;;;;;;;;;27.76;64.73;99974.56;5111770;28;20348;-81
2023/08/02 07:58:27;;;;;;;;;;;;;;;27.59;65.24;99984.75;5111955;28;20672;-82
2023/08/02 08:00:52;;;;;;;;;;;;;;;27.42;64.47;99989.41;5111771;28;19998;-81
2023/08/02 08:03:17;;;;;;;;;;;;;;;27.15;65.59;99988.38;5093508;28;19961;-81
2023/08/02 08:05:47;;;;;;;;;;;;;;;27.05;68.12;99983.50;5111555;28;20015;-82
2023/08/02 08:08:12;;;;;;;;;;;;;;;26.93;68.57;99980.81;5110764;28;19915;-81
2023/08/02 08:10:37;;;;;;;;;;;;;;;26.93;69.82;99975.28;5112514;28;19939;-81
2023/08/02 08:13:03;;;;;;;;;;;;;;;27.00;69.91;99970.44;5111090;28;20299;-82
2023/08/02 08:15:28;;;;;;;;;;;;;;;27.19;69.95;99972.97;5111236;28;19912;-80
2023/08/02 08:17:53;;;;;;;;;;;;;;;27.23;67.50;99968.63;5093678;28;19919;-81
2023/08/02 08:20:18;;;;;;;;;;;;;;;27.41;68.43;99960.09;5111916;28;20382;-82
2023/08/02 08:22:44;;;;;;;;;;;;;;;27.50;69.05;99964.16;5110620;28;19919;-79
2023/08/02 08:25:09;;;;;;;;;;;;;;;27.65;69.43;99969.94;5110974;28;19911;-80
2023/08/02 08:27:36;;;;;;;;;;;;;;;27.86;68.55;99969.16;5110767;28;19958;-80
2023/08/02 08:30:02;;;;;;;;;;;;;;;28.01;68.55;99966.63;5091848;28;19912;-80
2023/08/02 08:32:29;;;;;;;;;;;;;;;27.94;66.79;99976.19;5111932;28;19911;-80
2023/08/02 08:34:54;;;;;;;;;;;;;;;27.97;67.71;99982.06;5112527;28;20393;-79
2023/08/02 08:37:20;;;;;;;;;;;;;;;28.00;68.52;99976.03;5112152;28;19915;-81
2023/08/02 08:39:45;;;;;;;;;;;;;;;27.98;68.20;99967.13;5113028;28;20355;-82
2023/08/02 08:42:12;;;;;;;;;;;;;;;27.90;68.99;99964.81;5122488;28;19990;-83
2023/08/02 08:44:38;;;;;;;;;;;;;;;27.95;69.45;99953.81;5120853;28;19915;-82
2023/08/02 08:47:06;;;;;;;;;;;;;;;28.03;68.86;99955.31;5110678;28;20057;-81
2023/08/02 08:49:31;;;;;;;;;;;;;;;27.82;68.34;99956.97;5110997;28;19943;-81
2023/08/02 08:51:58;;;;;;;;;;;;;;;27.82;69.32;99962.47;5110984;28;20003;-80
2023/08/02 08:54:27;;;;;;;;;;;;;;;27.81;69.23;99955.28;5111484;28;19918;-81
2023/08/02 08:56:53;;;;;;;;;;;;;;;27.77;68.90;99953.25;5111174;28;19918;-81
2023/08/02 08:59:18;;;;;;;;;;;;;;;27.75;69.78;99961.81;5110334;28;19912;-81
2023/08/02 09:01:45;;;;;;;;;;;;;;;27.76;70.06;99962.66;5110568;28;20006;-81
2023/08/02 09:04:10;;;;;;;;;;;;;;;27.77;68.68;99954.09;5092019;28;19951;-80
2023/08/02 09:06:36;;;;;;;;;;;;;;;27.83;69.21;99953.06;5110889;28;20015;-82
2023/08/02 09:09:02;;;;;;;;;;;;;;;27.83;70.34;99955.84;5111154;28;19921;-81
2023/08/02 09:11:28;;;;;;;;;;;;;;;27.93;70.26;99947.72;5110250;28;19958;-80
2023/08/02 09:14:10;;;;;;;;;;;;;;;27.93;69.37;99952.41;5111019;28;20399;-83
2023/08/02 09:16:36;;;;;;;;;;;;;;;27.87;69.48;99948.72;5110553;28;19967;-79
2023/08/02 09:19:01;;;;;;;;;;;;;;;27.80;69.82;99945.28;5111075;28;19947;-80
2023/08/02 09:21:27;;;;;;;;;;;;;;;27.76;69.85;99957.97;5114367;28;19918;-81
2023/08/02 09:23:56;;;;;;;;;;;;;;;27.70;68.92;99961.75;5114937;28;19920;-80
2023/08/02 09:26:21;;;;;;;;;;;;;;;27.77;69.95;99951.31;5114909;28;19912;-85
2023/08/02 09:29:02;;;;;;;;;;;;;;;27.90;70.75;99948.22;5115437;28;20010;-81
2023/08/02 09:31:28;;;;;;;;;;;;;;;28.09;69.94;99957.09;5116669;28;20046;-81
2023/08/02 09:33:54;;;;;;;;;;;;;;;28.26;69.43;99962.56;5115359;28;19922;-81
2023/08/02 09:36:27;;;;;;;;;;;;;;;28.27;69.08;99965.09;5119771;28;19915;-78
2023/08/02 09:38:55;;;;;;;;;;;;;;;28.35;67.14;99955.50;5125157;28;19911;-78
2023/08/02 09:41:22;;;;;;;;;;;;;;;28.33;66.88;99958.53;5121771;28;19951;-81
2023/08/02 09:43:47;;;;;;;;;;;;;;;28.32;65.07;99962.38;5096682;28;20543;-80
2023/08/02 09:46:23;;;;;;;;;;;;;;;28.37;66.01;99970.75;5114569;28;19919;-82
2023/08/02 09:48:49;;;;;;;;;;;;;;;28.47;66.11;99979.16;5114050;28;20291;-81
2023/08/02 09:51:14;;;;;;;;;;;;;;;28.44;65.83;99965.03;5096514;28;19912;-80
2023/08/02 09:53:40;;;;;;;;;;;;;;;28.49;65.94;99971.47;5114518;28;19912;-81
2023/08/02 09:56:06;;;;;;;;;;;;;;;28.44;65.99;99959.50;5114486;28;20363;-80
2023/08/02 09:58:35;;;;;;;;;;;;;;;28.43;65.51;99957.81;5114043;28;19919;-80
2023/08/02 10:01:01;;;;;;;;;;;;;;;28.37;65.44;99951.41;5114368;28;19969;-80
2023/08/02 10:03:28;;;;;;;;;;;;;;;28.32;65.76;99961.53;5096076;28;20606;-82
2023/08/02 10:05:55;;;;;;;;;;;;;;;28.42;63.35;99958.91;5116301;28;19911;-80
2023/08/02 10:08:21;;;;;;;;;;;;;;;28.47;64.18;99967.28;5096284;28;20443;-79
2023/08/02 10:10:52;;;;;;;;;;;;;;;28.43;65.36;99963.34;5113645;28;20041;-80
2023/08/02 10:13:19;;;;;;;;;;;;;;;28.58;65.31;99958.00;5114022;28;19965;-84
2023/08/02 10:15:47;;;;;;;;;;;;;;;28.78;64.33;99949.97;5113623;28;19912;-84
2023/08/02 10:18:12;;;;;;;;;;;;;;;28.72;63.64;99952.94;5113632;28;19958;-79
2023/08/02 10:20:38;;;;;;;;;;;;;;;28.75;63.67;99944.09;5113829;28;19958;-82
2023/08/02 10:23:04;;;;;;;;;;;;;;;28.77;63.84;99961.31;5114984;28;19927;-81
2023/08/02 10:25:33;;;;;;;;;;;;;;;28.94;64.35;99965.66;5114855;28;19911;-81
2023/08/02 10:27:59;;;;;;;;;;;;;;;28.95;64.12;99956.25;5113696;28;19915;-80
2023/08/02 10:30:25;;;;;;;;;;;;;;;29.03;64.43;99950.22;5113968;28;19918;-82
2023/08/02 10:33:09;;;;;;;;;;;;;;;29.00;64.73;99950.75;5117351;28;19911;-84
2023/08/02 10:35:53;;;;;;;;;;;;;;;29.08;65.36;99955.81;5102909;28;19907;-80
2023/08/02 10:38:24;;;;;;;;;;;;;;;29.16;64.76;99963.66;5113704;28;19907;-81
2023/08/02 10:41:21;;;;;;;;;;;;;;;29.14;65.00;99953.94;5113654;28;20651;-82
2023/08/02 10:43:53;;;;;;;;;;;;;;;29.16;66.25;99955.34;5049606;28;19908;-81
2023/08/02 10:46:26;;;;;;;;;;;;;;;29.17;65.56;99959.78;5049829;28;19924;-82
2023/08/02 10:48:51;;;;;;;;;;;;;;;29.25;66.18;99946.59;5049431;28;19956;-80
2023/08/02 10:51:37;;;;;;;;;;;;;;;29.28;65.91;99940.53;5049657;28;20050;-82
2023/08/02 10:54:08;;;;;;;;;;;;;;;29.32;66.19;99950.00;5031786;28;20434;-82
2023/08/02 10:56:34;;;;;;;;;;;;;;;29.38;66.11;99938.69;5049723;28;19913;-75
2023/08/02 10:58:59;;;;;;;;;;;;;;;29.48;65.91;99938.75;5049258;28;19920;-77
2023/08/02 11:01:24;;;;;;;;;;;;;;;29.55;66.24;99939.38;5049203;28;19913;-78
2023/08/02 11:03:50;;;;;;;;;;;;;;;29.60;66.21;99944.13;5049153;28;20352;-78
2023/08/02 11:06:24;;;;;;;;;;;;;;;29.53;66.49;99937.97;5047472;28;19913;-78
2023/08/02 11:08:50;;;;;;;;;;;;;;;29.53;67.27;99937.97;5048274;28;20033;-77
2023/08/02 11:11:15;;;;;;;;;;;;;;;29.60;67.18;99925.53;5048336;28;19924;-80
2023/08/02 11:13:41;;;;;;;;;;;;;;;29.45;67.83;99933.75;5048619;28;19950;-79
2023/08/02 11:16:06;;;;;;;;;;;;;;;29.45;68.36;99932.91;5048118;28;19913;-76
2023/08/02 11:18:34;;;;;;;;;;;;;;;29.40;68.73;99927.31;5057222;28;20294;-77
2023/08/02 11:21:12;;;;;;;;;;;;;;;29.47;69.00;99931.56;5111165;28;20390;-78
2023/08/02 11:23:38;;;;;;;;;;;;;;;29.55;68.63;99925.50;5111635;28;19920;-77
2023/08/02 11:26:10;;;;;;;;;;;;;;;29.54;68.99;99923.03;5111626;28;19976;-79
2023/08/02 11:28:40;;;;;;;;;;;;;;;29.61;68.65;99926.38;5114469;28;19954;-77
2023/08/02 11:31:06;;;;;;;;;;;;;;;29.63;69.27;99932.50;5117438;28;19911;-78
2023/08/02 11:33:31;;;;;;;;;;;;;;;29.72;67.63;99925.38;5114168;28;19922;-75
2023/08/02 11:35:57;;;;;;;;;;;;;;;29.81;67.59;99925.69;5111929;28;19918;-76
2023/08/02 11:38:22;;;;;;;;;;;;;;;29.91;67.70;99923.84;5112146;28;19912;-76
2023/08/02 11:40:48;;;;;;;;;;;;;;;30.07;67.14;99933.91;5111516;28;19911;-76
2023/08/02 11:43:15;;;;;;;;;;;;;;;30.31;66.23;99911.28;5110477;28;20346;-78
2023/08/02 11:45:40;;;;;;;;;;;;;;;30.50;65.49;99918.03;5111581;28;20344;-78
2023/08/02 11:48:05;;;;;;;;;;;;;;;30.63;64.39;99912.81;5111123;28;19911;-76
2023/08/02 11:50:34;;;;;;;;;;;;;;;30.59;64.44;99906.13;5110783;28;19969;-77
2023/08/02 11:53:04;;;;;;;;;;;;;;;30.15;65.91;99911.19;5111682;28;19907;-79
2023/08/02 11:55:30;;;;;;;;;;;;;;;30.11;66.30;99923.13;5110625;28;19951;-76
2023/08/02 11:57:57;;;;;;;;;;;;;;;29.97;67.09;99914.44;5111447;28;19919;-79
2023/08/02 12:00:22;;;;;;;;;;;;;;;29.69;68.27;99917.59;5111078;28;19922;-77
2023/08/02 12:02:47;;;;;;;;;;;;;;;29.57;68.53;99917.75;5110183;28;19907;-76
2023/08/02 12:05:22;;;;;;;;;;;;;;;29.62;68.84;99912.28;5111163;28;19912;-80
2023/08/02 12:07:48;;;;;;;;;;;;;;;29.45;69.53;99916.28;5074471;28;19919;-80
2023/08/02 12:10:27;;;;;;;;;;;;;;;29.50;69.81;99917.16;5110642;28;20359;-81
2023/08/02 12:12:53;;;;;;;;;;;;;;;29.56;69.59;99923.56;5092322;28;19929;-81
2023/08/02 12:15:19;;;;;;;;;;;;;;;29.59;70.09;99917.50;5111084;28;19915;-79
2023/08/02 12:17:45;;;;;;;;;;;;;;;29.65;70.08;99917.28;5111245;28;19967;-81
2023/08/02 12:20:28;;;;;;;;;;;;;;;29.80;69.41;99913.75;5112304;28;20002;-78
2023/08/02 12:22:53;;;;;;;;;;;;;;;29.91;69.26;99917.44;5111107;28;19911;-77
2023/08/02 12:25:18;;;;;;;;;;;;;;;29.77;68.85;99914.28;5114987;28;19918;-81
2023/08/02 12:28:01;;;;;;;;;;;;;;;29.72;69.44;99917.06;5113484;28;19912;-80
2023/08/02 12:30:26;;;;;;;;;;;;;;;29.64;69.88;99914.75;5120265;28;19926;-82
2023/08/02 12:32:53;;;;;;;;;;;;;;;29.48;71.13;99913.00;5093388;28;19920;-80
2023/08/02 12:35:18;;;;;;;;;;;;;;;29.60;70.74;99908.09;5111276;28;20369;-80
2023/08/02 12:37:47;;;;;;;;;;;;;;;29.49;71.16;99912.72;5110284;28;20409;-81
2023/08/02 12:40:12;;;;;;;;;;;;;;;29.31;72.12;99915.06;5109960;28;19934;-81
2023/08/02 12:42:37;;;;;;;;;;;;;;;29.52;71.69;99919.66;5110261;28;20367;-83